createdAt,value
2019-06-07T00:00:33.574Z,99.99
2019-06-07T00:01:16.471Z,99.99
2019-06-07T00:02:16.429Z,99.99
2019-06-07T00:03:26.639Z,99.99
2019-06-07T00:04:16.097Z,99.99
2019-06-07T00:05:18.642Z,99.99
2019-06-07T00:06:20.357Z,99.99
2019-06-07T00:07:17.762Z,99.99
2019-06-07T00:08:22.500Z,99.99
2019-06-07T00:09:17.836Z,99.99
2019-06-07T00:10:31.389Z,99.99
2019-06-07T00:11:18.603Z,99.99
2019-06-07T00:12:17.596Z,99.99
2019-06-07T00:13:18.795Z,99.99
2019-06-07T00:14:16.592Z,99.99
2019-06-07T00:15:21.932Z,99.99
2019-06-07T00:16:20.844Z,99.99
2019-06-07T00:17:17.640Z,99.99
2019-06-07T00:18:23.118Z,99.99
2019-06-07T00:19:16.252Z,99.99
2019-06-07T00:20:22.659Z,99.99
2019-06-07T00:21:17.854Z,99.99
2019-06-07T00:22:29.134Z,99.99
2019-06-07T00:23:22.091Z,99.99
2019-06-07T00:24:16.816Z,99.99
2019-06-07T00:25:22.735Z,99.99
2019-06-07T00:26:18.174Z,99.99
2019-06-07T00:27:18.266Z,99.99
2019-06-07T00:28:17.320Z,99.99
2019-06-07T00:29:18.839Z,99.99
2019-06-07T00:30:35.949Z,99.99
2019-06-07T00:31:21.928Z,99.99
2019-06-07T00:32:19.978Z,99.99
2019-06-07T00:33:20.555Z,99.99
2019-06-07T00:34:19.110Z,99.99
2019-06-07T00:35:19.391Z,99.99
2019-06-07T00:36:18.168Z,99.99
2019-06-07T00:37:19.796Z,99.99
2019-06-07T00:38:19.016Z,99.99
2019-06-07T00:39:20.280Z,99.99
2019-06-07T00:40:25.407Z,99.99
2019-06-07T00:41:20.226Z,99.99
2019-06-07T00:42:19.361Z,99.99
2019-06-07T00:43:19.225Z,99.99
2019-06-07T00:44:19.822Z,99.99
2019-06-07T00:45:19.023Z,99.99
2019-06-07T00:46:18.810Z,99.99
2019-06-07T00:47:21.553Z,99.99
2019-06-07T00:48:27.481Z,99.99
2019-06-07T00:49:32.369Z,99.99
2019-06-07T00:50:21.026Z,99.99
2019-06-07T00:51:18.973Z,99.99
2019-06-07T00:53:07.035Z,99.99
2019-06-07T00:53:26.954Z,99.99
2019-06-07T00:54:19.897Z,99.99
2019-06-07T00:55:19.566Z,99.99
2019-06-07T00:56:20.311Z,99.99
2019-06-07T00:57:19.362Z,99.99
2019-06-07T00:58:21.227Z,99.99
2019-06-07T00:59:20.999Z,99.99
2019-06-07T01:00:21.876Z,99.99
2019-06-07T01:01:20.958Z,99.99
2019-06-07T01:02:19.250Z,99.99
2019-06-07T01:03:22.004Z,99.99
2019-06-07T01:04:20.496Z,99.99
2019-06-07T01:05:22.454Z,99.99
2019-06-07T01:06:21.355Z,99.99
2019-06-07T01:07:18.758Z,99.99
2019-06-07T01:08:20.002Z,99.99
2019-06-07T01:09:20.284Z,99.99
2019-06-07T01:10:46.448Z,99.99
2019-06-07T01:11:20.580Z,99.99
2019-06-07T01:12:19.834Z,99.99
2019-06-07T01:13:19.476Z,99.99
2019-06-07T01:14:20.310Z,99.99
2019-06-07T01:15:22.216Z,99.99
2019-06-07T01:16:19.502Z,99.99
2019-06-07T01:17:30.369Z,99.99
2019-06-07T01:18:39.332Z,99.99
2019-06-07T01:19:21.154Z,99.99
2019-06-07T01:20:21.225Z,99.99
2019-06-07T01:21:20.642Z,99.99
2019-06-07T01:22:20.688Z,99.99
2019-06-07T01:24:01.406Z,99.99
2019-06-07T01:24:20.028Z,99.99
2019-06-07T01:25:22.202Z,99.99
2019-06-07T01:26:20.560Z,99.99
2019-06-07T01:27:20.619Z,99.99
2019-06-07T01:28:21.371Z,99.99
2019-06-07T01:29:20.029Z,99.99
2019-06-07T01:30:22.773Z,99.99
2019-06-07T01:31:21.058Z,99.99
2019-06-07T01:32:20.962Z,99.99
2019-06-07T01:33:20.791Z,99.99
2019-06-07T01:34:20.991Z,99.99
2019-06-07T01:35:20.618Z,99.99
2019-06-07T01:36:20.071Z,99.99
2019-06-07T01:37:22.571Z,99.99
2019-06-07T01:38:21.927Z,99.99
2019-06-07T01:39:21.103Z,99.99
2019-06-07T01:40:20.776Z,99.99
2019-06-07T01:41:23.047Z,99.99
2019-06-07T01:42:20.377Z,99.99
2019-06-07T01:43:26.207Z,99.99
2019-06-07T01:44:22.764Z,99.99
2019-06-07T01:45:21.216Z,99.99
2019-06-07T01:46:20.767Z,99.99
2019-06-07T01:47:21.190Z,99.99
2019-06-07T01:48:23.094Z,99.99
2019-06-07T01:49:21.926Z,99.99
2019-06-07T01:50:23.358Z,99.99
2019-06-07T01:51:20.176Z,99.99
2019-06-07T01:52:23.574Z,99.99
2019-06-07T01:53:22.426Z,99.99
2019-06-07T01:54:52.097Z,99.99
2019-06-07T01:55:23.632Z,99.99
2019-06-07T01:56:21.986Z,99.99
2019-06-07T01:57:34.264Z,99.99
2019-06-07T01:58:21.810Z,99.99
2019-06-07T01:59:22.907Z,99.99
2019-06-07T02:00:22.008Z,99.99
2019-06-07T02:01:21.695Z,99.99
2019-06-07T02:02:22.569Z,99.99
2019-06-07T02:03:22.322Z,99.99
2019-06-07T02:04:23.259Z,99.99
2019-06-07T02:05:21.515Z,99.99
2019-06-07T02:06:21.698Z,99.99
2019-06-07T02:07:26.892Z,99.99
2019-06-07T02:08:22.219Z,99.99
2019-06-07T02:09:21.045Z,99.99
2019-06-07T02:10:24.619Z,99.99
2019-06-07T02:11:22.099Z,99.99
2019-06-07T02:12:29.065Z,99.99
2019-06-07T02:13:21.331Z,99.99
2019-06-07T02:14:24.160Z,99.99
2019-06-07T02:15:23.082Z,99.99
2019-06-07T02:16:21.825Z,99.99
2019-06-07T02:17:24.393Z,99.99
2019-06-07T02:18:23.293Z,99.99
2019-06-07T02:19:22.062Z,99.99
2019-06-07T02:20:25.701Z,99.99
2019-06-07T02:21:24.658Z,99.99
2019-06-07T02:22:23.634Z,99.99
2019-06-07T02:23:24.009Z,99.99
2019-06-07T02:24:24.856Z,99.99
2019-06-07T02:25:38.344Z,99.99
2019-06-07T02:26:22.945Z,99.99
2019-06-07T02:27:24.663Z,99.99
2019-06-07T02:28:32.079Z,99.99
2019-06-07T02:29:22.921Z,99.99
2019-06-07T02:30:40.617Z,99.99
2019-06-07T02:31:24.362Z,99.99
2019-06-07T02:32:24.254Z,99.99
2019-06-07T02:33:25.796Z,99.99
2019-06-07T02:34:24.109Z,99.99
2019-06-07T02:35:25.635Z,99.99
2019-06-07T02:36:25.471Z,99.99
2019-06-07T02:37:24.219Z,99.99
2019-06-07T02:38:25.236Z,99.99
2019-06-07T02:39:23.997Z,99.99
2019-06-07T02:40:24.387Z,99.99
2019-06-07T02:41:25.695Z,99.99
2019-06-07T02:42:26.110Z,99.99
2019-06-07T02:43:24.832Z,99.99
2019-06-07T02:44:24.042Z,99.99
2019-06-07T02:45:24.234Z,99.99
2019-06-07T02:46:30.693Z,99.99
2019-06-07T02:47:22.853Z,99.99
2019-06-07T02:48:24.522Z,99.99
2019-06-07T02:49:26.790Z,99.99
2019-06-07T02:50:23.192Z,99.99
2019-06-07T02:51:24.468Z,99.99
2019-06-07T02:52:27.334Z,99.99
2019-06-07T02:53:25.158Z,99.99
2019-06-07T02:54:24.075Z,99.99
2019-06-07T02:55:27.341Z,99.99
2019-06-07T02:56:54.120Z,99.99
2019-06-07T02:57:25.716Z,99.99
2019-06-07T02:58:26.135Z,99.99
2019-06-07T02:59:48.492Z,99.99
2019-06-07T03:00:55.372Z,99.99
2019-06-07T03:01:24.845Z,99.99
2019-06-07T03:02:25.561Z,99.99
2019-06-07T03:03:24.599Z,99.99
2019-06-07T03:04:26.463Z,99.99
2019-06-07T03:05:25.026Z,99.99
2019-06-07T03:06:23.696Z,99.99
2019-06-07T03:07:23.742Z,99.99
2019-06-07T03:08:23.793Z,99.99
2019-06-07T03:09:23.857Z,99.99
2019-06-07T03:10:23.882Z,99.99
2019-06-07T03:11:23.932Z,99.99
2019-06-07T03:12:23.976Z,99.99
2019-06-07T03:13:24.028Z,99.99
2019-06-07T03:14:24.093Z,99.99
2019-06-07T03:15:37.357Z,99.99
2019-06-07T03:16:24.165Z,99.99
2019-06-07T03:17:24.213Z,99.99
2019-06-07T03:18:24.259Z,99.99
2019-06-07T03:19:24.321Z,99.99
2019-06-07T03:20:24.357Z,99.99
2019-06-07T03:21:24.404Z,99.99
2019-06-07T03:22:24.446Z,99.99
2019-06-07T03:23:26.181Z,99.99
2019-06-07T03:24:24.658Z,99.99
2019-06-07T03:25:25.735Z,99.99
2019-06-07T03:26:24.630Z,99.99
2019-06-07T03:27:48.634Z,99.99
2019-06-07T03:28:24.729Z,99.99
2019-06-07T03:29:28.245Z,99.99
2019-06-07T03:30:58.116Z,99.99
2019-06-07T03:31:27.499Z,99.99
2019-06-07T03:32:24.914Z,99.99
2019-06-07T03:33:26.562Z,99.99
2019-06-07T03:34:25.029Z,99.99
2019-06-07T03:35:27.603Z,99.99
2019-06-07T03:36:26.018Z,99.99
2019-06-07T03:37:25.149Z,99.99
2019-06-07T03:38:25.192Z,99.99
2019-06-07T03:39:25.383Z,99.99
2019-06-07T03:40:25.315Z,99.99
2019-06-07T03:41:25.333Z,99.99
2019-06-07T03:42:25.387Z,99.99
2019-06-07T03:43:27.268Z,99.99
2019-06-07T03:44:27.870Z,99.99
2019-06-07T03:45:28.483Z,99.99
2019-06-07T03:46:27.248Z,99.99
2019-06-07T03:47:28.383Z,99.99
2019-06-07T03:48:28.361Z,99.99
2019-06-07T03:49:27.798Z,99.99
2019-06-07T03:50:28.247Z,99.99
2019-06-07T03:51:27.393Z,99.99
2019-06-07T03:52:27.189Z,99.99
2019-06-07T03:53:29.208Z,99.99
2019-06-07T03:54:27.169Z,99.99
2019-06-07T03:55:27.773Z,99.99
2019-06-07T03:56:28.124Z,99.99
2019-06-07T03:57:28.585Z,99.99
2019-06-07T03:58:45.740Z,99.99
2019-06-07T03:59:28.248Z,99.99
2019-06-07T04:00:28.752Z,99.99
2019-06-07T04:01:28.594Z,99.99
2019-06-07T04:02:27.769Z,99.99
2019-06-07T04:03:36.158Z,99.99
2019-06-07T04:04:27.341Z,99.99
2019-06-07T04:05:28.234Z,99.99
2019-06-07T04:06:28.828Z,99.99
2019-06-07T04:07:28.982Z,99.99
2019-06-07T04:08:28.154Z,99.99
2019-06-07T04:09:28.584Z,99.99
2019-06-07T04:10:45.864Z,99.99
2019-06-07T04:11:27.544Z,99.99
2019-06-07T04:12:28.119Z,99.99
2019-06-07T04:13:28.905Z,99.99
2019-06-07T04:14:29.330Z,99.99
2019-06-07T04:15:27.807Z,99.99
2019-06-07T04:16:28.833Z,99.99
2019-06-07T04:17:30.694Z,99.99
2019-06-07T04:18:27.918Z,99.99
2019-06-07T04:19:28.732Z,99.99
2019-06-07T04:20:29.309Z,99.99
2019-06-07T04:21:29.666Z,99.99
2019-06-07T04:22:28.784Z,99.99
2019-06-07T04:23:29.908Z,99.99
2019-06-07T04:24:28.624Z,99.99
2019-06-07T04:25:28.961Z,99.99
2019-06-07T04:26:30.917Z,99.99
2019-06-07T04:27:28.194Z,99.99
2019-06-07T04:29:23.796Z,99.99
2019-06-07T04:29:33.959Z,99.99
2019-06-07T04:30:29.422Z,99.99
2019-06-07T04:31:28.383Z,99.99
2019-06-07T04:32:29.788Z,99.99
2019-06-07T04:33:28.752Z,99.99
2019-06-07T04:34:29.319Z,99.99
2019-06-07T04:35:31.464Z,99.99
2019-06-07T04:36:44.153Z,99.99
2019-06-07T04:37:28.479Z,99.99
2019-06-07T04:38:29.496Z,99.99
2019-06-07T04:39:31.108Z,99.99
2019-06-07T04:40:30.704Z,99.99
2019-06-07T04:41:28.677Z,99.99
2019-06-07T04:42:29.971Z,99.99
2019-06-07T04:43:31.020Z,99.99
2019-06-07T04:44:28.862Z,99.99
2019-06-07T04:45:33.847Z,99.99
2019-06-07T04:46:28.924Z,99.99
2019-06-07T04:47:29.669Z,99.99
2019-06-07T04:48:30.916Z,99.99
2019-06-07T04:49:29.883Z,99.99
2019-06-07T04:50:30.959Z,99.99
2019-06-07T04:51:30.186Z,99.99
2019-06-07T04:52:29.948Z,99.99
2019-06-07T04:53:30.856Z,99.99
2019-06-07T04:54:31.099Z,99.99
2019-06-07T04:55:29.106Z,99.99
2019-06-07T04:56:29.986Z,99.99
2019-06-07T04:57:32.012Z,99.99
2019-06-07T04:58:30.437Z,99.99
2019-06-07T05:00:09.468Z,99.99
2019-06-07T05:00:59.256Z,99.99
2019-06-07T05:01:30.688Z,99.99
2019-06-07T05:02:29.534Z,99.99
2019-06-07T05:03:31.386Z,99.99
2019-06-07T05:04:31.444Z,99.99
2019-06-07T05:05:29.345Z,99.99
2019-06-07T05:06:30.066Z,99.99
2019-06-07T05:07:30.952Z,99.99
2019-06-07T05:08:31.481Z,99.99
2019-06-07T05:09:30.130Z,99.99
2019-06-07T05:10:30.622Z,99.99
2019-06-07T05:11:31.629Z,99.99
2019-06-07T05:12:30.017Z,99.99
2019-06-07T05:13:31.499Z,99.99
2019-06-07T05:14:32.533Z,99.99
2019-06-07T05:15:29.757Z,99.99
2019-06-07T05:16:30.644Z,99.99
2019-06-07T05:17:31.283Z,99.99
2019-06-07T05:18:29.941Z,99.99
2019-06-07T05:19:30.598Z,99.99
2019-06-07T05:20:29.999Z,99.99
2019-06-07T05:21:49.281Z,99.99
2019-06-07T05:22:31.538Z,99.99
2019-06-07T05:24:03.809Z,99.99
2019-06-07T05:24:30.725Z,99.99
2019-06-07T05:25:31.830Z,99.99
2019-06-07T05:26:30.561Z,99.99
2019-06-07T05:27:32.586Z,99.99
2019-06-07T05:28:30.386Z,99.99
2019-06-07T05:29:30.817Z,99.99
2019-06-07T05:31:31.180Z,99.99
2019-06-07T05:32:32.909Z,99.99
2019-06-07T05:33:31.129Z,99.99
2019-06-07T05:34:32.269Z,99.99
2019-06-07T05:35:30.726Z,99.99
2019-06-07T05:36:31.481Z,99.99
2019-06-07T05:37:32.542Z,99.99
2019-06-07T05:38:31.047Z,99.99
2019-06-07T05:39:32.116Z,99.99
2019-06-07T05:40:32.962Z,99.99
2019-06-07T05:41:32.289Z,99.99
2019-06-07T05:42:32.122Z,99.99
2019-06-07T05:43:34.929Z,99.99
2019-06-07T05:44:31.624Z,99.99
2019-06-07T05:45:32.336Z,99.99
2019-06-07T05:46:33.909Z,99.99
2019-06-07T05:47:31.794Z,99.99
2019-06-07T05:48:31.822Z,99.99
2019-06-07T05:49:32.893Z,99.99
2019-06-07T05:50:43.653Z,99.99
2019-06-07T05:51:32.243Z,99.99
2019-06-07T05:52:33.228Z,99.99
2019-06-07T05:53:32.813Z,99.99
2019-06-07T05:54:34.689Z,99.99
2019-06-07T05:55:32.722Z,99.99
2019-06-07T05:56:33.206Z,99.99
2019-06-07T05:57:35.881Z,99.99
2019-06-07T05:58:32.721Z,99.99
2019-06-07T05:59:33.403Z,99.99
2019-06-07T06:00:34.583Z,99.99
2019-06-07T06:01:58.938Z,99.99
2019-06-07T06:02:34.601Z,99.99
2019-06-07T06:03:34.580Z,99.99
2019-06-07T06:04:33.741Z,99.99
2019-06-07T06:05:36.383Z,99.99
2019-06-07T06:06:33.790Z,99.99
2019-06-07T06:07:34.753Z,99.99
2019-06-07T06:08:36.100Z,99.99
2019-06-07T06:09:32.405Z,99.99
2019-06-07T06:10:32.454Z,99.99
2019-06-07T06:11:45.621Z,99.99
2019-06-07T06:12:38.294Z,99.99
2019-06-07T06:13:32.579Z,99.99
2019-06-07T06:14:32.655Z,99.99
2019-06-07T06:15:42.146Z,99.99
2019-06-07T06:16:32.727Z,99.99
2019-06-07T06:17:32.779Z,99.99
2019-06-07T06:18:32.826Z,99.99
2019-06-07T06:19:32.895Z,99.99
2019-06-07T06:20:46.238Z,99.99
2019-06-07T06:21:32.973Z,99.99
2019-06-07T06:22:33.036Z,99.99
2019-06-07T06:23:33.086Z,99.99
2019-06-07T06:24:33.233Z,99.99
2019-06-07T06:25:34.268Z,99.99
2019-06-07T06:26:33.221Z,99.99
2019-06-07T06:28:33.323Z,99.99
2019-06-07T06:29:33.391Z,99.99
2019-06-07T06:30:33.421Z,99.99
2019-06-07T06:31:33.482Z,99.99
2019-06-07T06:32:48.853Z,99.99
2019-06-07T06:33:34.947Z,99.99
2019-06-07T06:34:33.645Z,99.99
2019-06-07T06:35:33.670Z,99.99
2019-06-07T06:36:33.717Z,99.99
2019-06-07T06:37:33.764Z,99.99
2019-06-07T06:38:33.811Z,99.99
2019-06-07T06:39:33.908Z,99.99
2019-06-07T06:40:33.912Z,99.99
2019-06-07T06:41:46.123Z,99.99
2019-06-07T06:42:34.018Z,99.99
2019-06-07T06:43:34.057Z,99.99
2019-06-07T06:44:34.146Z,99.99
2019-06-07T06:45:34.158Z,99.99
2019-06-07T06:46:40.975Z,99.99
2019-06-07T06:47:34.257Z,99.99
2019-06-07T06:48:34.314Z,99.99
2019-06-07T06:49:34.524Z,99.99
2019-06-07T06:50:34.426Z,99.99
2019-06-07T06:51:34.452Z,99.99
2019-06-07T06:52:34.510Z,99.99
2019-06-07T06:53:34.555Z,99.99
2019-06-07T06:54:41.001Z,99.99
2019-06-07T06:55:34.680Z,99.99
2019-06-07T06:56:34.750Z,99.99
2019-06-07T06:57:34.755Z,99.99
2019-06-07T06:59:18.824Z,99.99
2019-06-07T06:59:39.410Z,99.99
2019-06-07T07:00:48.387Z,99.99
2019-06-07T07:01:34.963Z,99.99
2019-06-07T07:02:35.006Z,99.99
2019-06-07T07:04:07.248Z,99.99
2019-06-07T07:04:35.104Z,99.99
2019-06-07T07:05:35.173Z,99.99
2019-06-07T07:06:35.217Z,99.99
2019-06-07T07:07:35.261Z,97.91
2019-06-07T07:08:35.305Z,96.08
2019-06-07T07:09:35.355Z,94.06
2019-06-07T07:10:35.445Z,93.49
2019-06-07T07:11:52.278Z,93.49
2019-06-07T07:12:35.508Z,95.17
2019-06-07T07:13:35.555Z,96.99
2019-06-07T07:14:35.612Z,99.58
2019-06-07T07:15:35.683Z,99.99
2019-06-07T07:16:35.857Z,99.77
2019-06-07T07:17:50.761Z,98.43
2019-06-07T07:18:35.821Z,95.55
2019-06-07T07:19:35.860Z,92.61
2019-06-07T07:20:35.918Z,90.26
2019-06-07T07:21:35.985Z,87.99
2019-06-07T07:22:36.020Z,86.49
2019-06-07T07:23:36.120Z,85.96
2019-06-07T07:24:36.126Z,83.74
2019-06-07T07:25:36.170Z,83.01
2019-06-07T07:26:36.239Z,81.12
2019-06-07T07:27:36.261Z,79.49
2019-06-07T07:28:36.328Z,80.54
2019-06-07T07:29:36.368Z,80.68
2019-06-07T07:30:37.513Z,79.04
2019-06-07T07:31:36.495Z,78.36
2019-06-07T07:32:36.540Z,77.78
2019-06-07T07:34:37.376Z,76.43
2019-06-07T07:35:36.676Z,76.53
2019-06-07T07:36:39.707Z,78.33
2019-06-07T07:37:36.792Z,78.42
2019-06-07T07:38:36.830Z,79.97
2019-06-07T07:39:36.903Z,79.10
2019-06-07T07:40:57.029Z,78.81
2019-06-07T07:41:37.011Z,78.23
2019-06-07T07:42:37.043Z,79.19
2019-06-07T07:43:37.135Z,77.98
2019-06-07T07:44:37.140Z,80.10
2019-06-07T07:45:37.210Z,78.08
2019-06-07T07:46:37.265Z,75.79
2019-06-07T07:47:55.948Z,76.24
2019-06-07T07:48:37.374Z,76.37
2019-06-07T07:49:37.406Z,75.41
2019-06-07T07:50:37.456Z,76.76
2019-06-07T07:51:37.533Z,75.45
2019-06-07T07:52:37.569Z,75.35
2019-06-07T07:53:48.623Z,75.26
2019-06-07T07:54:37.668Z,75.48
2019-06-07T07:55:37.891Z,74.71
2019-06-07T07:56:37.790Z,74.65
2019-06-07T07:57:37.829Z,75.20
2019-06-07T07:58:37.877Z,74.68
2019-06-07T07:59:42.197Z,75.12
2019-06-07T08:00:52.587Z,77.83
2019-06-07T08:01:38.075Z,75.60
2019-06-07T08:02:38.110Z,75.45
2019-06-07T08:03:38.146Z,76.15
2019-06-07T08:05:13.610Z,79.00
2019-06-07T08:05:43.148Z,79.19
2019-06-07T08:06:38.317Z,78.75
2019-06-07T08:07:38.507Z,77.59
2019-06-07T08:08:38.412Z,77.83
2019-06-07T08:09:38.457Z,75.76
2019-06-07T08:10:38.511Z,76.24
2019-06-07T08:11:38.568Z,76.57
2019-06-07T08:13:00.423Z,76.61
2019-06-07T08:13:38.667Z,76.80
2019-06-07T08:14:38.736Z,77.55
2019-06-07T08:15:38.773Z,75.71
2019-06-07T08:16:38.835Z,76.01
2019-06-07T08:17:38.901Z,75.81
2019-06-07T08:18:38.938Z,76.06
2019-06-07T08:19:38.985Z,74.96
2019-06-07T08:20:39.041Z,77.61
2019-06-07T08:21:39.105Z,78.91
2019-06-07T08:22:39.166Z,75.17
2019-06-07T08:23:39.198Z,75.21
2019-06-07T08:24:39.254Z,72.30
2019-06-07T08:25:39.410Z,73.53
2019-06-07T08:26:39.376Z,75.43
2019-06-07T08:27:39.432Z,75.04
2019-06-07T08:28:39.472Z,75.06
2019-06-07T08:29:45.118Z,78.48
2019-06-07T08:30:50.712Z,81.24
2019-06-07T08:31:39.627Z,84.03
2019-06-07T08:32:39.745Z,83.55
2019-06-07T08:33:39.737Z,83.11
2019-06-07T08:34:39.793Z,81.37
2019-06-07T08:36:42.332Z,83.50
2019-06-07T08:38:15.002Z,83.53
2019-06-07T08:38:47.873Z,83.42
2019-06-07T08:39:40.086Z,79.17
2019-06-07T08:40:40.142Z,80.60
2019-06-07T08:41:54.146Z,83.80
2019-06-07T08:42:59.780Z,86.02
2019-06-07T08:43:40.269Z,88.04
2019-06-07T08:44:40.325Z,88.87
2019-06-07T08:45:40.388Z,90.41
2019-06-07T08:46:40.467Z,90.16
2019-06-07T08:47:40.588Z,89.09
2019-06-07T08:48:40.538Z,86.07
2019-06-07T08:49:40.611Z,86.45
2019-06-07T08:50:40.652Z,87.38
2019-06-07T08:51:40.696Z,90.17
2019-06-07T08:52:40.776Z,91.85
2019-06-07T08:53:40.804Z,91.52
2019-06-07T08:54:40.928Z,91.37
2019-06-07T08:55:40.907Z,91.42
2019-06-07T08:56:41.038Z,90.50
2019-06-07T08:57:41.035Z,89.43
2019-06-07T08:58:41.082Z,88.42
2019-06-07T08:59:41.156Z,86.55
2019-06-07T09:00:46.205Z,88.14
2019-06-07T09:01:41.225Z,88.19
2019-06-07T09:02:41.280Z,90.36
2019-06-07T09:03:41.362Z,91.99
2019-06-07T09:04:41.383Z,92.23
2019-06-07T09:05:41.434Z,89.54
2019-06-07T09:07:02.577Z,91.17
2019-06-07T09:07:41.557Z,91.41
2019-06-07T09:08:41.615Z,90.25
2019-06-07T09:09:41.736Z,91.16
2019-06-07T09:10:42.457Z,88.17
2019-06-07T09:11:41.761Z,82.74
2019-06-07T09:12:41.806Z,87.43
2019-06-07T09:13:41.885Z,92.48
2019-06-07T09:14:58.676Z,93.68
2019-06-07T09:15:41.964Z,92.43
2019-06-07T09:16:42.029Z,92.67
2019-06-07T09:18:29.686Z,91.13
2019-06-07T09:18:44.769Z,92.33
2019-06-07T09:19:42.189Z,93.49
2019-06-07T09:20:42.235Z,93.54
2019-06-07T09:21:42.288Z,95.03
2019-06-07T09:22:42.331Z,94.01
2019-06-07T09:23:42.415Z,90.55
2019-06-07T09:24:42.487Z,88.67
2019-06-07T09:25:56.584Z,89.64
2019-06-07T09:26:42.648Z,92.57
2019-06-07T09:27:42.616Z,96.08
2019-06-07T09:28:42.650Z,95.36
2019-06-07T09:29:42.758Z,92.47
2019-06-07T09:30:42.759Z,89.25
2019-06-07T09:31:52.751Z,90.84
2019-06-07T09:32:42.866Z,94.35
2019-06-07T09:33:42.919Z,97.09
2019-06-07T09:34:42.995Z,98.24
2019-06-07T09:35:43.015Z,97.76
2019-06-07T09:36:43.087Z,99.20
2019-06-07T09:38:43.206Z,96.03
2019-06-07T09:39:43.243Z,96.47
2019-06-07T09:40:43.310Z,93.68
2019-06-07T09:41:49.529Z,93.39
2019-06-07T09:42:43.387Z,92.86
2019-06-07T09:44:43.488Z,95.89
2019-06-07T09:45:43.570Z,95.12
2019-06-07T09:46:43.651Z,97.56
2019-06-07T09:47:43.643Z,98.33
2019-06-07T09:49:43.773Z,98.43
2019-06-07T09:50:43.821Z,98.48
2019-06-07T09:51:43.848Z,96.85
2019-06-07T09:52:57.785Z,96.70
2019-06-07T09:53:43.965Z,97.76
2019-06-07T09:55:05.776Z,97.33
2019-06-07T09:55:44.095Z,98.39
2019-06-07T09:56:44.111Z,93.58
2019-06-07T09:57:44.239Z,93.73
2019-06-07T09:58:53.731Z,91.52
2019-06-07T09:59:44.282Z,92.24
2019-06-07T10:00:44.360Z,93.10
2019-06-07T10:01:44.382Z,93.73
2019-06-07T10:02:44.452Z,95.98
2019-06-07T10:03:44.492Z,96.47
2019-06-07T10:04:44.527Z,97.81
2019-06-07T10:05:44.611Z,98.00
2019-06-07T10:06:44.696Z,92.76
2019-06-07T10:07:59.972Z,89.34
2019-06-07T10:10:44.868Z,91.95
2019-06-07T10:11:44.890Z,93.39
2019-06-07T10:12:44.941Z,93.44
2019-06-07T10:13:45.039Z,93.53
2019-06-07T10:14:45.397Z,92.67
2019-06-07T10:15:45.132Z,92.72
2019-06-07T10:16:46.751Z,94.59
2019-06-07T10:17:45.207Z,95.65
2019-06-07T10:18:45.271Z,91.99
2019-06-07T10:19:45.318Z,88.28
2019-06-07T10:20:45.396Z,90.50
2019-06-07T10:21:45.416Z,92.96
2019-06-07T10:22:45.474Z,94.11
2019-06-07T10:23:45.520Z,93.91
2019-06-07T10:24:45.576Z,94.40
2019-06-07T10:25:45.642Z,91.99
2019-06-07T10:26:45.701Z,90.78
2019-06-07T10:27:45.732Z,90.73
2019-06-07T10:28:45.820Z,91.07
2019-06-07T10:29:45.840Z,90.20
2019-06-07T10:30:45.908Z,89.19
2019-06-07T10:31:46.045Z,88.04
2019-06-07T10:32:45.999Z,88.91
2019-06-07T10:33:46.045Z,89.54
2019-06-07T10:34:46.117Z,91.03
2019-06-07T10:35:46.160Z,91.07
2019-06-07T10:36:46.268Z,90.30
2019-06-07T10:37:46.265Z,89.68
2019-06-07T10:38:46.419Z,90.01
2019-06-07T10:39:48.963Z,88.85
2019-06-07T10:40:46.419Z,88.42
2019-06-07T10:41:46.506Z,92.36
2019-06-07T10:42:46.536Z,86.19
2019-06-07T10:43:46.614Z,85.47
2019-06-07T10:44:46.632Z,85.27
2019-06-07T10:45:46.709Z,86.08
2019-06-07T10:46:46.758Z,82.51
2019-06-07T10:47:46.802Z,83.45
2019-06-07T10:48:46.857Z,86.41
2019-06-07T10:49:46.910Z,89.68
2019-06-07T10:50:46.968Z,90.06
2019-06-07T10:51:47.035Z,90.41
2019-06-07T10:52:47.063Z,91.70
2019-06-07T10:53:47.134Z,91.80
2019-06-07T10:54:47.172Z,90.64
2019-06-07T10:55:47.221Z,90.10
2019-06-07T10:56:47.314Z,86.05
2019-06-07T10:57:47.335Z,86.98
2019-06-07T10:58:47.402Z,89.29
2019-06-07T10:59:47.442Z,90.73
2019-06-07T11:00:47.502Z,91.03
2019-06-07T11:01:47.653Z,91.65
2019-06-07T11:02:47.627Z,89.39
2019-06-07T11:03:47.655Z,88.71
2019-06-07T11:04:47.708Z,89.72
2019-06-07T11:05:47.769Z,89.92
2019-06-07T11:06:47.849Z,90.64
2019-06-07T11:07:47.946Z,88.17
2019-06-07T11:08:47.919Z,86.82
2019-06-07T11:10:02.890Z,88.22
2019-06-07T11:10:48.030Z,86.77
2019-06-07T11:11:48.090Z,86.98
2019-06-07T11:12:48.178Z,89.43
2019-06-07T11:13:48.190Z,89.39
2019-06-07T11:14:48.250Z,87.36
2019-06-07T11:15:48.357Z,90.00
2019-06-07T11:16:48.352Z,88.93
2019-06-07T11:17:48.428Z,83.77
2019-06-07T11:18:48.467Z,84.36
2019-06-07T11:19:48.509Z,87.02
2019-06-07T11:20:48.564Z,86.63
2019-06-07T11:21:48.620Z,86.54
2019-06-07T11:22:48.691Z,87.07
2019-06-07T11:23:48.782Z,87.65
2019-06-07T11:24:48.785Z,90.05
2019-06-07T11:25:48.840Z,84.79
2019-06-07T11:26:48.893Z,84.27
2019-06-07T11:27:48.972Z,84.90
2019-06-07T11:28:49.013Z,86.35
2019-06-07T11:29:49.064Z,86.44
2019-06-07T11:30:49.106Z,87.17
2019-06-07T11:31:49.157Z,88.27
2019-06-07T11:32:49.237Z,88.18
2019-06-07T11:33:49.290Z,89.09
2019-06-07T11:34:49.330Z,88.04
2019-06-07T11:35:49.374Z,88.61
2019-06-07T11:36:51.149Z,89.48
2019-06-07T11:37:49.522Z,89.23
2019-06-07T11:38:49.538Z,88.22
2019-06-07T11:39:49.590Z,87.53
2019-06-07T11:40:50.515Z,85.08
2019-06-07T11:41:49.816Z,85.94
2019-06-07T11:42:52.666Z,85.37
2019-06-07T11:43:49.805Z,84.83
2019-06-07T11:44:56.936Z,84.83
2019-06-07T11:45:49.927Z,84.74
2019-06-07T11:46:49.972Z,83.91
2019-06-07T11:47:50.066Z,85.35
2019-06-07T11:48:50.113Z,79.97
2019-06-07T11:49:50.157Z,78.61
2019-06-07T11:50:50.187Z,79.31
2019-06-07T11:51:50.239Z,82.21
2019-06-07T11:52:50.309Z,81.48
2019-06-07T11:53:50.370Z,83.74
2019-06-07T11:54:50.443Z,79.43
2019-06-07T11:55:50.461Z,78.36
2019-06-07T11:56:50.511Z,77.78
2019-06-07T11:57:50.570Z,78.27
2019-06-07T11:58:50.629Z,78.50
2019-06-07T11:59:50.751Z,75.24
2019-06-07T12:00:50.738Z,75.17
2019-06-07T12:01:50.791Z,77.03
2019-06-07T12:02:50.854Z,79.12
2019-06-07T12:03:50.940Z,80.28
2019-06-07T12:04:50.998Z,80.95
2019-06-07T12:05:51.034Z,81.29
2019-06-07T12:06:51.079Z,80.74
2019-06-07T12:07:51.127Z,80.07
2019-06-07T12:08:51.215Z,77.90
2019-06-07T12:09:56.348Z,78.29
2019-06-07T12:10:51.293Z,78.42
2019-06-07T12:11:51.352Z,80.20
2019-06-07T12:12:51.404Z,76.53
2019-06-07T12:13:51.512Z,77.55
2019-06-07T12:14:51.521Z,77.65
2019-06-07T12:15:51.603Z,77.05
2019-06-07T12:16:51.639Z,77.19
2019-06-07T12:17:51.687Z,78.58
2019-06-07T12:18:51.761Z,74.64
2019-06-07T12:19:51.802Z,77.94
2019-06-07T12:20:51.865Z,74.45
2019-06-07T12:21:51.918Z,73.99
2019-06-07T12:22:51.989Z,75.95
2019-06-07T12:23:52.046Z,76.45
2019-06-07T12:24:52.100Z,78.48
2019-06-07T12:25:52.139Z,78.67
2019-06-07T12:26:52.217Z,78.91
2019-06-07T12:27:52.260Z,77.78
2019-06-07T12:28:52.328Z,76.56
2019-06-07T12:29:52.402Z,76.04
2019-06-07T12:30:55.099Z,76.86
2019-06-07T12:31:52.494Z,76.89
2019-06-07T12:32:52.537Z,75.60
2019-06-07T12:33:52.631Z,75.15
2019-06-07T12:34:52.698Z,74.63
2019-06-07T12:35:52.721Z,76.18
2019-06-07T12:36:52.779Z,74.98
2019-06-07T12:37:52.889Z,76.68
2019-06-07T12:38:52.882Z,75.71
2019-06-07T12:39:52.968Z,78.61
2019-06-07T12:40:57.729Z,78.33
2019-06-07T12:41:53.064Z,77.30
2019-06-07T12:42:53.134Z,76.86
2019-06-07T12:43:53.178Z,76.79
2019-06-07T12:44:53.240Z,75.24
2019-06-07T12:45:53.286Z,75.67
2019-06-07T12:46:53.342Z,73.15
2019-06-07T12:47:53.408Z,72.44
2019-06-07T12:48:53.480Z,73.31
2019-06-07T12:49:53.532Z,72.92
2019-06-07T12:50:53.582Z,73.31
2019-06-07T12:51:53.631Z,72.86
2019-06-07T12:52:53.696Z,73.05
2019-06-07T12:53:53.747Z,74.16
2019-06-07T12:54:53.832Z,75.84
2019-06-07T12:55:53.863Z,72.87
2019-06-07T12:56:53.927Z,72.22
2019-06-07T12:57:53.981Z,72.44
2019-06-07T12:58:54.042Z,74.05
2019-06-07T12:59:54.132Z,74.43
2019-06-07T13:00:54.175Z,74.86
2019-06-07T13:01:54.215Z,74.47